sensor_id;sensor_type;location;lat;lon;timestamp;P1;durP1;ratioP1;P2;durP2;ratioP2
64887;SDS011;51386;53.082;8.816;2023-05-07T00:02:03;12.07;;;10.77;;
64887;SDS011;51386;53.082;8.816;2023-05-07T00:04:30;12.10;;;10.97;;
64887;SDS011;51386;53.082;8.816;2023-05-07T00:07:04;12.00;;;10.73;;
64887;SDS011;51386;53.082;8.816;2023-05-07T00:09:31;13.00;;;11.70;;
64887;SDS011;51386;53.082;8.816;2023-05-07T00:11:58;11.57;;;10.33;;
64887;SDS011;51386;53.082;8.816;2023-05-07T00:14:25;12.60;;;11.30;;
64887;SDS011;51386;53.082;8.816;2023-05-07T00:16:52;12.80;;;11.60;;
64887;SDS011;51386;53.082;8.816;2023-05-07T00:19:20;12.87;;;11.57;;
64887;SDS011;51386;53.082;8.816;2023-05-07T00:21:47;12.27;;;11.13;;
64887;SDS011;51386;53.082;8.816;2023-05-07T00:24:15;13.40;;;12.00;;
64887;SDS011;51386;53.082;8.816;2023-05-07T00:26:42;12.23;;;11.03;;
64887;SDS011;51386;53.082;8.816;2023-05-07T00:29:09;13.23;;;11.87;;
64887;SDS011;51386;53.082;8.816;2023-05-07T00:31:36;12.73;;;10.93;;
64887;SDS011;51386;53.082;8.816;2023-05-07T00:34:03;14.07;;;11.67;;
64887;SDS011;51386;53.082;8.816;2023-05-07T00:36:30;11.13;;;10.07;;
64887;SDS011;51386;53.082;8.816;2023-05-07T00:38:58;13.07;;;11.77;;
64887;SDS011;51386;53.082;8.816;2023-05-07T00:41:29;12.80;;;11.60;;
64887;SDS011;51386;53.082;8.816;2023-05-07T00:43:59;12.10;;;10.73;;
64887;SDS011;51386;53.082;8.816;2023-05-07T00:46:26;13.40;;;12.00;;
64887;SDS011;51386;53.082;8.816;2023-05-07T00:48:54;15.47;;;13.97;;
64887;SDS011;51386;53.082;8.816;2023-05-07T00:51:21;11.90;;;10.77;;
64887;SDS011;51386;53.082;8.816;2023-05-07T00:53:51;11.97;;;10.70;;
64887;SDS011;51386;53.082;8.816;2023-05-07T00:56:18;12.73;;;11.37;;
64887;SDS011;51386;53.082;8.816;2023-05-07T00:58:48;13.23;;;11.97;;
64887;SDS011;51386;53.082;8.816;2023-05-07T01:01:16;12.30;;;11.13;;
64887;SDS011;51386;53.082;8.816;2023-05-07T01:03:43;10.73;;;9.73;;
64887;SDS011;51386;53.082;8.816;2023-05-07T01:06:11;12.03;;;10.87;;
64887;SDS011;51386;53.082;8.816;2023-05-07T01:08:43;14.03;;;12.63;;
64887;SDS011;51386;53.082;8.816;2023-05-07T01:11:11;14.57;;;13.07;;
64887;SDS011;51386;53.082;8.816;2023-05-07T01:13:38;13.90;;;12.60;;
64887;SDS011;51386;53.082;8.816;2023-05-07T01:16:09;13.07;;;11.60;;
64887;SDS011;51386;53.082;8.816;2023-05-07T01:18:36;12.50;;;11.30;;
64887;SDS011;51386;53.082;8.816;2023-05-07T01:21:04;14.27;;;12.80;;
64887;SDS011;51386;53.082;8.816;2023-05-07T01:23:34;13.30;;;11.90;;
64887;SDS011;51386;53.082;8.816;2023-05-07T01:26:02;13.43;;;12.03;;
64887;SDS011;51386;53.082;8.816;2023-05-07T01:28:29;12.77;;;11.23;;
64887;SDS011;51386;53.082;8.816;2023-05-07T01:30:58;12.50;;;11.20;;
64887;SDS011;51386;53.082;8.816;2023-05-07T01:33:31;13.03;;;11.73;;
64887;SDS011;51386;53.082;8.816;2023-05-07T01:36:02;12.80;;;11.50;;
64887;SDS011;51386;53.082;8.816;2023-05-07T01:38:34;13.37;;;12.07;;
64887;SDS011;51386;53.082;8.816;2023-05-07T01:41:02;12.13;;;10.90;;
64887;SDS011;51386;53.082;8.816;2023-05-07T01:43:30;13.67;;;12.27;;
64887;SDS011;51386;53.082;8.816;2023-05-07T01:45:57;13.73;;;12.43;;
64887;SDS011;51386;53.082;8.816;2023-05-07T01:48:26;11.83;;;10.57;;
64887;SDS011;51386;53.082;8.816;2023-05-07T01:50:53;13.40;;;11.10;;
64887;SDS011;51386;53.082;8.816;2023-05-07T01:53:21;13.13;;;11.77;;
64887;SDS011;51386;53.082;8.816;2023-05-07T01:55:49;13.93;;;11.73;;
64887;SDS011;51386;53.082;8.816;2023-05-07T01:58:16;11.73;;;10.63;;
64887;SDS011;51386;53.082;8.816;2023-05-07T02:00:43;11.80;;;10.60;;
64887;SDS011;51386;53.082;8.816;2023-05-07T02:03:10;13.17;;;11.53;;
64887;SDS011;51386;53.082;8.816;2023-05-07T02:05:38;12.33;;;11.07;;
64887;SDS011;51386;53.082;8.816;2023-05-07T02:08:04;12.20;;;10.93;;
64887;SDS011;51386;53.082;8.816;2023-05-07T02:10:31;13.17;;;11.87;;
64887;SDS011;51386;53.082;8.816;2023-05-07T02:13:00;13.00;;;11.73;;
64887;SDS011;51386;53.082;8.816;2023-05-07T02:15:28;11.60;;;10.50;;
64887;SDS011;51386;53.082;8.816;2023-05-07T02:17:59;13.57;;;11.07;;
64887;SDS011;51386;53.082;8.816;2023-05-07T02:20:28;12.70;;;11.40;;
64887;SDS011;51386;53.082;8.816;2023-05-07T02:22:55;13.20;;;11.87;;
64887;SDS011;51386;53.082;8.816;2023-05-07T02:25:22;11.83;;;10.57;;
64887;SDS011;51386;53.082;8.816;2023-05-07T02:27:49;12.93;;;11.63;;
64887;SDS011;51386;53.082;8.816;2023-05-07T02:30:17;11.93;;;10.63;;
64887;SDS011;51386;53.082;8.816;2023-05-07T02:32:45;15.50;;;12.70;;
64887;SDS011;51386;53.082;8.816;2023-05-07T02:35:12;12.83;;;11.57;;
64887;SDS011;51386;53.082;8.816;2023-05-07T02:37:39;13.57;;;12.27;;
64887;SDS011;51386;53.082;8.816;2023-05-07T02:40:06;11.93;;;10.73;;
64887;SDS011;51386;53.082;8.816;2023-05-07T02:42:35;14.00;;;11.83;;
64887;SDS011;51386;53.082;8.816;2023-05-07T02:45:02;15.90;;;10.73;;
64887;SDS011;51386;53.082;8.816;2023-05-07T02:47:31;12.90;;;11.60;;
64887;SDS011;51386;53.082;8.816;2023-05-07T02:49:58;12.43;;;11.17;;
64887;SDS011;51386;53.082;8.816;2023-05-07T02:52:25;13.87;;;12.13;;
64887;SDS011;51386;53.082;8.816;2023-05-07T02:54:52;11.50;;;10.23;;
64887;SDS011;51386;53.082;8.816;2023-05-07T02:57:19;14.30;;;11.20;;
64887;SDS011;51386;53.082;8.816;2023-05-07T02:59:46;13.57;;;12.17;;
64887;SDS011;51386;53.082;8.816;2023-05-07T03:02:13;13.17;;;11.13;;
64887;SDS011;51386;53.082;8.816;2023-05-07T03:04:41;15.07;;;12.80;;
64887;SDS011;51386;53.082;8.816;2023-05-07T03:07:08;12.67;;;11.33;;
64887;SDS011;51386;53.082;8.816;2023-05-07T03:09:35;12.60;;;11.30;;
64887;SDS011;51386;53.082;8.816;2023-05-07T03:12:02;12.83;;;10.77;;
64887;SDS011;51386;53.082;8.816;2023-05-07T03:14:29;13.17;;;11.27;;
64887;SDS011;51386;53.082;8.816;2023-05-07T03:16:56;11.47;;;10.30;;
64887;SDS011;51386;53.082;8.816;2023-05-07T03:19:23;12.13;;;10.93;;
64887;SDS011;51386;53.082;8.816;2023-05-07T03:21:51;11.87;;;10.67;;
64887;SDS011;51386;53.082;8.816;2023-05-07T03:24:18;12.90;;;11.60;;
64887;SDS011;51386;53.082;8.816;2023-05-07T03:26:46;12.33;;;10.73;;
64887;SDS011;51386;53.082;8.816;2023-05-07T03:29:13;12.77;;;10.90;;
64887;SDS011;51386;53.082;8.816;2023-05-07T03:31:40;12.23;;;10.93;;
64887;SDS011;51386;53.082;8.816;2023-05-07T03:34:07;13.50;;;10.70;;
64887;SDS011;51386;53.082;8.816;2023-05-07T03:36:33;12.03;;;10.83;;
64887;SDS011;51386;53.082;8.816;2023-05-07T03:39:02;11.93;;;10.40;;
64887;SDS011;51386;53.082;8.816;2023-05-07T03:41:29;12.43;;;11.20;;
64887;SDS011;51386;53.082;8.816;2023-05-07T03:43:56;11.53;;;10.33;;
64887;SDS011;51386;53.082;8.816;2023-05-07T03:46:23;11.10;;;10.00;;
64887;SDS011;51386;53.082;8.816;2023-05-07T03:48:52;11.67;;;10.17;;
64887;SDS011;51386;53.082;8.816;2023-05-07T03:51:19;11.27;;;9.60;;
64887;SDS011;51386;53.082;8.816;2023-05-07T03:53:46;11.60;;;10.33;;
64887;SDS011;51386;53.082;8.816;2023-05-07T03:56:14;12.10;;;10.47;;
64887;SDS011;51386;53.082;8.816;2023-05-07T03:58:44;13.20;;;10.50;;
64887;SDS011;51386;53.082;8.816;2023-05-07T04:01:12;10.90;;;9.87;;
64887;SDS011;51386;53.082;8.816;2023-05-07T04:03:38;10.80;;;9.67;;
64887;SDS011;51386;53.082;8.816;2023-05-07T04:06:05;9.73;;;8.80;;
64887;SDS011;51386;53.082;8.816;2023-05-07T04:08:32;11.37;;;10.27;;
64887;SDS011;51386;53.082;8.816;2023-05-07T04:10:59;10.13;;;9.03;;
64887;SDS011;51386;53.082;8.816;2023-05-07T04:13:29;9.90;;;8.90;;
64887;SDS011;51386;53.082;8.816;2023-05-07T04:15:56;10.83;;;9.80;;
64887;SDS011;51386;53.082;8.816;2023-05-07T04:18:23;10.50;;;9.10;;
64887;SDS011;51386;53.082;8.816;2023-05-07T04:20:50;10.53;;;9.43;;
64887;SDS011;51386;53.082;8.816;2023-05-07T04:23:18;10.93;;;9.80;;
64887;SDS011;51386;53.082;8.816;2023-05-07T04:25:45;10.33;;;9.10;;
64887;SDS011;51386;53.082;8.816;2023-05-07T04:28:12;9.33;;;8.23;;
64887;SDS011;51386;53.082;8.816;2023-05-07T04:30:40;10.50;;;9.40;;
64887;SDS011;51386;53.082;8.816;2023-05-07T04:33:07;10.97;;;8.80;;
64887;SDS011;51386;53.082;8.816;2023-05-07T04:35:34;10.60;;;9.50;;
64887;SDS011;51386;53.082;8.816;2023-05-07T04:38:01;9.57;;;8.40;;
64887;SDS011;51386;53.082;8.816;2023-05-07T04:40:28;10.93;;;9.53;;
64887;SDS011;51386;53.082;8.816;2023-05-07T04:42:56;9.87;;;8.87;;
64887;SDS011;51386;53.082;8.816;2023-05-07T04:45:23;9.30;;;8.40;;
64887;SDS011;51386;53.082;8.816;2023-05-07T04:47:51;9.60;;;8.60;;
64887;SDS011;51386;53.082;8.816;2023-05-07T04:50:18;9.73;;;8.73;;
64887;SDS011;51386;53.082;8.816;2023-05-07T04:52:46;9.03;;;8.17;;
64887;SDS011;51386;53.082;8.816;2023-05-07T04:55:12;10.37;;;9.33;;
64887;SDS011;51386;53.082;8.816;2023-05-07T04:57:39;11.93;;;9.77;;
64887;SDS011;51386;53.082;8.816;2023-05-07T05:00:07;9.87;;;8.87;;
64887;SDS011;51386;53.082;8.816;2023-05-07T05:02:36;10.57;;;9.53;;
64887;SDS011;51386;53.082;8.816;2023-05-07T05:05:05;9.87;;;8.80;;
64887;SDS011;51386;53.082;8.816;2023-05-07T05:07:33;10.47;;;9.47;;
64887;SDS011;51386;53.082;8.816;2023-05-07T05:10:01;10.00;;;9.00;;
64887;SDS011;51386;53.082;8.816;2023-05-07T05:12:29;10.83;;;9.63;;
64887;SDS011;51386;53.082;8.816;2023-05-07T05:14:56;9.93;;;8.90;;
64887;SDS011;51386;53.082;8.816;2023-05-07T05:17:23;9.80;;;8.90;;
64887;SDS011;51386;53.082;8.816;2023-05-07T05:19:50;9.17;;;8.37;;
64887;SDS011;51386;53.082;8.816;2023-05-07T05:22:18;9.90;;;8.90;;
64887;SDS011;51386;53.082;8.816;2023-05-07T05:24:47;9.13;;;8.33;;
64887;SDS011;51386;53.082;8.816;2023-05-07T05:27:14;8.40;;;7.60;;
64887;SDS011;51386;53.082;8.816;2023-05-07T05:29:41;9.73;;;8.73;;
64887;SDS011;51386;53.082;8.816;2023-05-07T05:32:08;8.10;;;7.33;;
64887;SDS011;51386;53.082;8.816;2023-05-07T05:34:34;8.63;;;7.83;;
64887;SDS011;51386;53.082;8.816;2023-05-07T05:37:01;9.00;;;8.10;;
64887;SDS011;51386;53.082;8.816;2023-05-07T05:39:30;8.47;;;7.67;;
64887;SDS011;51386;53.082;8.816;2023-05-07T05:41:57;8.30;;;7.50;;
64887;SDS011;51386;53.082;8.816;2023-05-07T05:44:24;10.27;;;8.53;;
64887;SDS011;51386;53.082;8.816;2023-05-07T05:46:51;8.77;;;7.87;;
64887;SDS011;51386;53.082;8.816;2023-05-07T05:49:21;8.60;;;7.80;;
64887;SDS011;51386;53.082;8.816;2023-05-07T05:51:49;9.03;;;8.23;;
64887;SDS011;51386;53.082;8.816;2023-05-07T05:54:15;8.13;;;7.43;;
64887;SDS011;51386;53.082;8.816;2023-05-07T05:56:44;8.17;;;7.47;;
64887;SDS011;51386;53.082;8.816;2023-05-07T05:59:11;9.10;;;8.20;;
64887;SDS011;51386;53.082;8.816;2023-05-07T06:01:38;7.73;;;7.03;;
64887;SDS011;51386;53.082;8.816;2023-05-07T06:04:05;8.13;;;7.50;;
64887;SDS011;51386;53.082;8.816;2023-05-07T06:06:32;8.47;;;7.67;;
64887;SDS011;51386;53.082;8.816;2023-05-07T06:08:59;7.80;;;7.10;;
64887;SDS011;51386;53.082;8.816;2023-05-07T06:11:26;8.37;;;7.57;;
64887;SDS011;51386;53.082;8.816;2023-05-07T06:13:54;7.00;;;6.30;;
64887;SDS011;51386;53.082;8.816;2023-05-07T06:16:21;7.47;;;6.77;;
64887;SDS011;51386;53.082;8.816;2023-05-07T06:18:48;7.87;;;7.27;;
64887;SDS011;51386;53.082;8.816;2023-05-07T06:21:15;8.17;;;7.37;;
64887;SDS011;51386;53.082;8.816;2023-05-07T06:23:42;7.57;;;6.87;;
64887;SDS011;51386;53.082;8.816;2023-05-07T06:26:09;7.00;;;6.30;;
64887;SDS011;51386;53.082;8.816;2023-05-07T06:28:36;6.33;;;5.83;;
64887;SDS011;51386;53.082;8.816;2023-05-07T06:31:14;7.53;;;6.93;;
64887;SDS011;51386;53.082;8.816;2023-05-07T06:33:43;6.93;;;6.33;;
64887;SDS011;51386;53.082;8.816;2023-05-07T06:36:11;7.00;;;6.40;;
64887;SDS011;51386;53.082;8.816;2023-05-07T06:38:38;7.10;;;6.50;;
64887;SDS011;51386;53.082;8.816;2023-05-07T06:41:05;7.17;;;6.37;;
64887;SDS011;51386;53.082;8.816;2023-05-07T06:43:33;7.53;;;6.87;;
64887;SDS011;51386;53.082;8.816;2023-05-07T06:46:00;7.47;;;6.87;;
64887;SDS011;51386;53.082;8.816;2023-05-07T06:48:28;7.50;;;6.87;;
64887;SDS011;51386;53.082;8.816;2023-05-07T06:50:55;6.53;;;5.93;;
64887;SDS011;51386;53.082;8.816;2023-05-07T06:53:23;7.20;;;6.57;;
64887;SDS011;51386;53.082;8.816;2023-05-07T06:55:50;7.50;;;6.80;;
64887;SDS011;51386;53.082;8.816;2023-05-07T06:58:18;6.53;;;5.93;;
64887;SDS011;51386;53.082;8.816;2023-05-07T07:00:45;6.07;;;5.47;;
64887;SDS011;51386;53.082;8.816;2023-05-07T07:03:12;6.50;;;5.83;;
64887;SDS011;51386;53.082;8.816;2023-05-07T07:05:41;6.70;;;6.10;;
64887;SDS011;51386;53.082;8.816;2023-05-07T07:08:08;6.37;;;5.77;;
64887;SDS011;51386;53.082;8.816;2023-05-07T07:10:36;6.30;;;5.80;;
64887;SDS011;51386;53.082;8.816;2023-05-07T07:13:02;6.83;;;6.20;;
64887;SDS011;51386;53.082;8.816;2023-05-07T07:15:29;6.17;;;5.67;;
64887;SDS011;51386;53.082;8.816;2023-05-07T07:17:56;6.83;;;6.23;;
64887;SDS011;51386;53.082;8.816;2023-05-07T07:20:23;7.37;;;6.67;;
64887;SDS011;51386;53.082;8.816;2023-05-07T07:22:52;7.13;;;6.43;;
64887;SDS011;51386;53.082;8.816;2023-05-07T07:25:18;6.37;;;5.80;;
64887;SDS011;51386;53.082;8.816;2023-05-07T07:27:45;7.03;;;6.43;;
64887;SDS011;51386;53.082;8.816;2023-05-07T07:30:12;6.53;;;5.90;;
64887;SDS011;51386;53.082;8.816;2023-05-07T07:32:39;8.17;;;7.47;;
64887;SDS011;51386;53.082;8.816;2023-05-07T07:35:07;8.13;;;6.90;;
64887;SDS011;51386;53.082;8.816;2023-05-07T07:37:35;6.97;;;6.37;;
64887;SDS011;51386;53.082;8.816;2023-05-07T07:40:03;7.47;;;6.77;;
64887;SDS011;51386;53.082;8.816;2023-05-07T07:42:31;6.70;;;6.10;;
64887;SDS011;51386;53.082;8.816;2023-05-07T07:44:58;6.67;;;6.13;;
64887;SDS011;51386;53.082;8.816;2023-05-07T07:47:25;7.20;;;6.60;;
64887;SDS011;51386;53.082;8.816;2023-05-07T07:49:52;7.07;;;6.37;;
64887;SDS011;51386;53.082;8.816;2023-05-07T07:52:19;7.47;;;6.87;;
64887;SDS011;51386;53.082;8.816;2023-05-07T07:54:46;8.13;;;6.80;;
64887;SDS011;51386;53.082;8.816;2023-05-07T07:57:14;6.77;;;6.17;;
64887;SDS011;51386;53.082;8.816;2023-05-07T07:59:41;6.33;;;5.83;;
64887;SDS011;51386;53.082;8.816;2023-05-07T08:02:09;6.90;;;6.30;;
64887;SDS011;51386;53.082;8.816;2023-05-07T08:04:36;6.47;;;5.87;;
64887;SDS011;51386;53.082;8.816;2023-05-07T08:07:04;6.33;;;5.80;;
64887;SDS011;51386;53.082;8.816;2023-05-07T08:09:31;6.90;;;6.30;;
64887;SDS011;51386;53.082;8.816;2023-05-07T08:11:58;6.47;;;5.87;;
64887;SDS011;51386;53.082;8.816;2023-05-07T08:14:27;6.30;;;5.80;;
64887;SDS011;51386;53.082;8.816;2023-05-07T08:16:54;6.27;;;5.77;;
64887;SDS011;51386;53.082;8.816;2023-05-07T08:19:21;5.33;;;4.93;;
64887;SDS011;51386;53.082;8.816;2023-05-07T08:21:48;6.53;;;5.93;;
64887;SDS011;51386;53.082;8.816;2023-05-07T08:24:15;6.67;;;5.23;;
64887;SDS011;51386;53.082;8.816;2023-05-07T08:26:43;5.63;;;5.13;;
64887;SDS011;51386;53.082;8.816;2023-05-07T08:29:12;6.13;;;5.63;;
64887;SDS011;51386;53.082;8.816;2023-05-07T08:31:40;6.37;;;5.77;;
64887;SDS011;51386;53.082;8.816;2023-05-07T08:34:07;6.13;;;5.53;;
64887;SDS011;51386;53.082;8.816;2023-05-07T08:36:35;6.27;;;5.70;;
64887;SDS011;51386;53.082;8.816;2023-05-07T08:39:02;5.30;;;4.90;;
64887;SDS011;51386;53.082;8.816;2023-05-07T08:41:29;5.97;;;5.37;;
64887;SDS011;51386;53.082;8.816;2023-05-07T08:43:58;5.40;;;4.90;;
64887;SDS011;51386;53.082;8.816;2023-05-07T08:46:26;6.20;;;5.70;;
64887;SDS011;51386;53.082;8.816;2023-05-07T08:48:59;6.37;;;5.73;;
64887;SDS011;51386;53.082;8.816;2023-05-07T08:51:27;5.90;;;5.40;;
64887;SDS011;51386;53.082;8.816;2023-05-07T08:53:54;6.60;;;6.10;;
64887;SDS011;51386;53.082;8.816;2023-05-07T08:56:21;5.67;;;5.07;;
64887;SDS011;51386;53.082;8.816;2023-05-07T08:58:48;6.70;;;6.10;;
64887;SDS011;51386;53.082;8.816;2023-05-07T09:01:16;6.20;;;5.70;;
64887;SDS011;51386;53.082;8.816;2023-05-07T09:03:44;7.30;;;6.70;;
64887;SDS011;51386;53.082;8.816;2023-05-07T09:06:14;9.13;;;6.33;;
64887;SDS011;51386;53.082;8.816;2023-05-07T09:08:44;6.50;;;6.00;;
64887;SDS011;51386;53.082;8.816;2023-05-07T09:11:19;6.57;;;5.93;;
64887;SDS011;51386;53.082;8.816;2023-05-07T09:13:48;6.10;;;5.60;;
64887;SDS011;51386;53.082;8.816;2023-05-07T09:16:16;6.53;;;5.97;;
64887;SDS011;51386;53.082;8.816;2023-05-07T09:18:43;5.87;;;5.33;;
64887;SDS011;51386;53.082;8.816;2023-05-07T09:21:11;5.90;;;5.40;;
64887;SDS011;51386;53.082;8.816;2023-05-07T09:23:42;6.00;;;5.43;;
64887;SDS011;51386;53.082;8.816;2023-05-07T09:26:09;5.67;;;5.17;;
64887;SDS011;51386;53.082;8.816;2023-05-07T09:28:38;6.33;;;5.70;;
64887;SDS011;51386;53.082;8.816;2023-05-07T09:31:06;6.80;;;6.30;;
64887;SDS011;51386;53.082;8.816;2023-05-07T09:33:34;6.13;;;5.57;;
64887;SDS011;51386;53.082;8.816;2023-05-07T09:36:02;7.10;;;6.43;;
64887;SDS011;51386;53.082;8.816;2023-05-07T09:38:31;6.30;;;5.80;;
64887;SDS011;51386;53.082;8.816;2023-05-07T09:41:02;7.33;;;6.63;;
64887;SDS011;51386;53.082;8.816;2023-05-07T09:43:33;7.77;;;6.20;;
64887;SDS011;51386;53.082;8.816;2023-05-07T09:46:02;7.10;;;6.50;;
64887;SDS011;51386;53.082;8.816;2023-05-07T09:48:35;6.80;;;6.30;;
64887;SDS011;51386;53.082;8.816;2023-05-07T09:51:07;6.73;;;6.13;;
64887;SDS011;51386;53.082;8.816;2023-05-07T09:53:46;6.83;;;6.27;;
64887;SDS011;51386;53.082;8.816;2023-05-07T09:56:14;7.40;;;6.70;;
64887;SDS011;51386;53.082;8.816;2023-05-07T09:58:43;7.33;;;6.63;;
64887;SDS011;51386;53.082;8.816;2023-05-07T10:01:11;6.90;;;6.20;;
64887;SDS011;51386;53.082;8.816;2023-05-07T10:03:39;6.30;;;5.80;;
64887;SDS011;51386;53.082;8.816;2023-05-07T10:06:08;7.23;;;6.63;;
64887;SDS011;51386;53.082;8.816;2023-05-07T10:08:36;8.00;;;7.20;;
64887;SDS011;51386;53.082;8.816;2023-05-07T10:11:05;6.57;;;5.97;;
64887;SDS011;51386;53.082;8.816;2023-05-07T10:13:32;6.90;;;6.33;;
64887;SDS011;51386;53.082;8.816;2023-05-07T10:16:03;6.80;;;6.20;;
64887;SDS011;51386;53.082;8.816;2023-05-07T10:18:31;7.73;;;7.13;;
64887;SDS011;51386;53.082;8.816;2023-05-07T10:21:02;6.50;;;5.97;;
64887;SDS011;51386;53.082;8.816;2023-05-07T10:23:35;6.50;;;5.87;;
64887;SDS011;51386;53.082;8.816;2023-05-07T10:26:05;8.57;;;7.07;;
64887;SDS011;51386;53.082;8.816;2023-05-07T10:28:35;7.77;;;7.10;;
64887;SDS011;51386;53.082;8.816;2023-05-07T10:31:15;7.77;;;7.07;;
64887;SDS011;51386;53.082;8.816;2023-05-07T10:34:06;6.20;;;5.70;;
64887;SDS011;51386;53.082;8.816;2023-05-07T10:36:36;7.07;;;6.47;;
64887;SDS011;51386;53.082;8.816;2023-05-07T10:39:04;6.97;;;6.27;;
64887;SDS011;51386;53.082;8.816;2023-05-07T10:41:33;6.73;;;6.07;;
64887;SDS011;51386;53.082;8.816;2023-05-07T10:44:00;7.97;;;7.10;;
64887;SDS011;51386;53.082;8.816;2023-05-07T10:46:28;6.93;;;6.33;;
64887;SDS011;51386;53.082;8.816;2023-05-07T10:49:11;7.20;;;6.60;;
64887;SDS011;51386;53.082;8.816;2023-05-07T10:51:38;6.97;;;6.37;;
64887;SDS011;51386;53.082;8.816;2023-05-07T10:54:18;8.00;;;7.10;;
64887;SDS011;51386;53.082;8.816;2023-05-07T10:56:50;7.40;;;6.77;;
64887;SDS011;51386;53.082;8.816;2023-05-07T10:59:30;6.50;;;6.00;;
64887;SDS011;51386;53.082;8.816;2023-05-07T11:02:06;7.07;;;6.37;;
64887;SDS011;51386;53.082;8.816;2023-05-07T11:04:36;7.23;;;6.53;;
64887;SDS011;51386;53.082;8.816;2023-05-07T11:10:04;7.07;;;6.47;;
64887;SDS011;51386;53.082;8.816;2023-05-07T11:12:51;7.17;;;6.47;;
64887;SDS011;51386;53.082;8.816;2023-05-07T11:15:36;7.20;;;6.43;;
64887;SDS011;51386;53.082;8.816;2023-05-07T11:18:10;8.10;;;7.40;;
64887;SDS011;51386;53.082;8.816;2023-05-07T11:20:49;6.80;;;6.20;;
64887;SDS011;51386;53.082;8.816;2023-05-07T11:26:25;6.93;;;6.37;;
64887;SDS011;51386;53.082;8.816;2023-05-07T11:28:56;7.00;;;6.40;;
64887;SDS011;51386;53.082;8.816;2023-05-07T11:31:27;6.97;;;6.47;;
64887;SDS011;51386;53.082;8.816;2023-05-07T11:33:55;7.47;;;6.87;;
64887;SDS011;51386;53.082;8.816;2023-05-07T11:36:23;7.23;;;6.63;;
64887;SDS011;51386;53.082;8.816;2023-05-07T11:38:50;7.20;;;5.43;;
64887;SDS011;51386;53.082;8.816;2023-05-07T11:41:17;6.83;;;6.23;;
64887;SDS011;51386;53.082;8.816;2023-05-07T11:43:56;7.90;;;7.20;;
64887;SDS011;51386;53.082;8.816;2023-05-07T11:46:26;6.23;;;5.73;;
64887;SDS011;51386;53.082;8.816;2023-05-07T11:48:54;7.73;;;6.80;;
64887;SDS011;51386;53.082;8.816;2023-05-07T11:51:23;7.27;;;6.67;;
64887;SDS011;51386;53.082;8.816;2023-05-07T11:53:53;8.03;;;6.50;;
64887;SDS011;51386;53.082;8.816;2023-05-07T11:56:20;6.23;;;5.70;;
64887;SDS011;51386;53.082;8.816;2023-05-07T11:58:47;6.60;;;6.10;;
64887;SDS011;51386;53.082;8.816;2023-05-07T12:01:17;6.50;;;5.90;;
64887;SDS011;51386;53.082;8.816;2023-05-07T12:03:44;6.40;;;5.90;;
64887;SDS011;51386;53.082;8.816;2023-05-07T12:06:13;6.50;;;5.90;;
64887;SDS011;51386;53.082;8.816;2023-05-07T12:08:43;6.33;;;5.73;;
64887;SDS011;51386;53.082;8.816;2023-05-07T12:11:14;5.67;;;5.17;;
64887;SDS011;51386;53.082;8.816;2023-05-07T12:13:47;6.17;;;5.57;;
64887;SDS011;51386;53.082;8.816;2023-05-07T12:16:14;6.43;;;5.93;;
64887;SDS011;51386;53.082;8.816;2023-05-07T12:18:44;6.57;;;5.97;;
64887;SDS011;51386;53.082;8.816;2023-05-07T12:21:12;6.83;;;6.23;;
64887;SDS011;51386;53.082;8.816;2023-05-07T12:23:39;5.70;;;5.10;;
64887;SDS011;51386;53.082;8.816;2023-05-07T12:26:07;6.87;;;6.27;;
64887;SDS011;51386;53.082;8.816;2023-05-07T12:28:38;6.47;;;5.93;;
64887;SDS011;51386;53.082;8.816;2023-05-07T12:31:06;7.40;;;6.13;;
64887;SDS011;51386;53.082;8.816;2023-05-07T12:33:35;7.07;;;6.43;;
64887;SDS011;51386;53.082;8.816;2023-05-07T12:36:03;7.67;;;6.97;;
64887;SDS011;51386;53.082;8.816;2023-05-07T12:38:34;6.00;;;5.50;;
64887;SDS011;51386;53.082;8.816;2023-05-07T12:41:04;7.33;;;6.63;;
64887;SDS011;51386;53.082;8.816;2023-05-07T12:43:33;6.63;;;6.03;;
64887;SDS011;51386;53.082;8.816;2023-05-07T12:46:01;5.90;;;5.40;;
64887;SDS011;51386;53.082;8.816;2023-05-07T12:48:31;6.07;;;5.57;;
64887;SDS011;51386;53.082;8.816;2023-05-07T12:51:00;7.13;;;6.43;;
64887;SDS011;51386;53.082;8.816;2023-05-07T12:53:28;6.63;;;6.00;;
64887;SDS011;51386;53.082;8.816;2023-05-07T12:55:58;6.37;;;5.77;;
64887;SDS011;51386;53.082;8.816;2023-05-07T12:58:27;5.43;;;4.97;;
64887;SDS011;51386;53.082;8.816;2023-05-07T13:00:58;5.83;;;5.33;;
64887;SDS011;51386;53.082;8.816;2023-05-07T13:03:28;5.97;;;5.57;;
64887;SDS011;51386;53.082;8.816;2023-05-07T13:05:57;6.10;;;5.60;;
64887;SDS011;51386;53.082;8.816;2023-05-07T13:08:29;6.00;;;5.43;;
64887;SDS011;51386;53.082;8.816;2023-05-07T13:10:58;5.27;;;4.87;;
64887;SDS011;51386;53.082;8.816;2023-05-07T13:13:30;5.57;;;5.17;;
64887;SDS011;51386;53.082;8.816;2023-05-07T13:15:58;5.83;;;5.40;;
64887;SDS011;51386;53.082;8.816;2023-05-07T13:18:29;5.47;;;4.97;;
64887;SDS011;51386;53.082;8.816;2023-05-07T13:20:59;5.53;;;5.13;;
64887;SDS011;51386;53.082;8.816;2023-05-07T13:23:27;4.90;;;4.50;;
64887;SDS011;51386;53.082;8.816;2023-05-07T13:25:55;5.27;;;4.83;;
64887;SDS011;51386;53.082;8.816;2023-05-07T13:28:22;5.23;;;4.73;;
64887;SDS011;51386;53.082;8.816;2023-05-07T13:30:50;5.40;;;4.90;;
64887;SDS011;51386;53.082;8.816;2023-05-07T13:33:18;5.30;;;4.90;;
64887;SDS011;51386;53.082;8.816;2023-05-07T13:35:45;5.43;;;5.03;;
64887;SDS011;51386;53.082;8.816;2023-05-07T13:38:13;5.30;;;4.80;;
64887;SDS011;51386;53.082;8.816;2023-05-07T13:40:42;4.50;;;4.10;;
64887;SDS011;51386;53.082;8.816;2023-05-07T13:43:09;4.73;;;4.40;;
64887;SDS011;51386;53.082;8.816;2023-05-07T13:45:36;4.67;;;4.27;;
64887;SDS011;51386;53.082;8.816;2023-05-07T13:48:04;4.33;;;4.03;;
64887;SDS011;51386;53.082;8.816;2023-05-07T13:50:31;4.07;;;3.77;;
64887;SDS011;51386;53.082;8.816;2023-05-07T13:52:58;4.37;;;3.97;;
64887;SDS011;51386;53.082;8.816;2023-05-07T13:55:28;3.97;;;3.67;;
64887;SDS011;51386;53.082;8.816;2023-05-07T13:57:56;4.17;;;3.87;;
64887;SDS011;51386;53.082;8.816;2023-05-07T14:00:24;4.67;;;4.20;;
64887;SDS011;51386;53.082;8.816;2023-05-07T14:02:52;5.00;;;3.87;;
64887;SDS011;51386;53.082;8.816;2023-05-07T14:05:19;5.43;;;4.27;;
64887;SDS011;51386;53.082;8.816;2023-05-07T14:07:47;4.77;;;4.37;;
64887;SDS011;51386;53.082;8.816;2023-05-07T14:10:15;4.60;;;4.20;;
64887;SDS011;51386;53.082;8.816;2023-05-07T14:12:43;5.27;;;4.77;;
64887;SDS011;51386;53.082;8.816;2023-05-07T14:15:10;5.07;;;4.57;;
64887;SDS011;51386;53.082;8.816;2023-05-07T14:17:37;4.70;;;4.30;;
64887;SDS011;51386;53.082;8.816;2023-05-07T14:20:05;5.20;;;4.80;;
64887;SDS011;51386;53.082;8.816;2023-05-07T14:22:33;4.37;;;4.07;;
64887;SDS011;51386;53.082;8.816;2023-05-07T14:25:00;5.03;;;4.43;;
64887;SDS011;51386;53.082;8.816;2023-05-07T14:27:30;4.83;;;4.43;;
64887;SDS011;51386;53.082;8.816;2023-05-07T14:29:58;4.47;;;4.13;;
64887;SDS011;51386;53.082;8.816;2023-05-07T14:32:25;4.83;;;4.53;;
64887;SDS011;51386;53.082;8.816;2023-05-07T14:34:52;4.50;;;4.10;;
64887;SDS011;51386;53.082;8.816;2023-05-07T14:37:19;5.10;;;4.70;;
64887;SDS011;51386;53.082;8.816;2023-05-07T14:39:46;5.50;;;5.10;;
64887;SDS011;51386;53.082;8.816;2023-05-07T14:42:16;5.13;;;4.73;;
64887;SDS011;51386;53.082;8.816;2023-05-07T14:44:43;5.23;;;4.80;;
64887;SDS011;51386;53.082;8.816;2023-05-07T14:47:13;6.43;;;4.73;;
64887;SDS011;51386;53.082;8.816;2023-05-07T14:49:42;5.13;;;4.80;;
64887;SDS011;51386;53.082;8.816;2023-05-07T14:52:09;4.70;;;4.33;;
64887;SDS011;51386;53.082;8.816;2023-05-07T14:54:36;5.03;;;4.73;;